Time;durP1;ratioP1;P1;durP2;ratioP2;P2;SDS_P1;SDS_P2;PMS_P1;PMS_P2;Temp;Humidity;BMP_temperature;BMP_pressure;BME280_temperature;BME280_humidity;BME280_pressure;Samples;Min_cycle;Max_cycle;Signal;HPM_P1;HPM_P2
2022/12/13 00:01:18;;;;;;;30.07;22.63;;;;;;;-5.12;100.00;99685.25;5021884;28;20271;-72
2022/12/13 00:03:43;;;;;;;28.60;21.43;;;;;;;-5.18;100.00;99689.16;5021848;28;20713;-71
2022/12/13 00:06:10;;;;;;;27.13;20.73;;;;;;;-5.26;100.00;99692.22;5021573;28;20206;-71
2022/12/13 00:08:36;;;;;;;28.30;21.33;;;;;;;-5.30;100.00;99685.28;5025465;28;20195;-70
2022/12/13 00:11:05;;;;;;;23.70;19.10;;;;;;;-5.30;100.00;99685.28;5027618;28;20362;-72
2022/12/13 00:13:30;;;;;;;22.73;18.43;;;;;;;-5.24;100.00;99684.72;5025302;28;20411;-71
2022/12/13 00:15:57;;;;;;;23.00;18.27;;;;;;;-5.12;100.00;99680.19;5044611;28;20775;-71
2022/12/13 00:18:23;;;;;;;21.70;17.20;;;;;;;-5.06;100.00;99688.06;5030351;28;20202;-73
2022/12/13 00:20:48;;;;;;;22.00;17.87;;;;;;;-5.03;100.00;99681.41;5033320;28;20187;-71
2022/12/13 00:23:13;;;;;;;21.87;17.50;;;;;;;-5.00;100.00;99682.41;5034619;28;20269;-72
2022/12/13 00:25:39;;;;;;;22.60;16.57;;;;;;;-4.97;100.00;99681.66;5032985;28;20338;-71
2022/12/13 00:28:04;;;;;;;22.00;17.40;;;;;;;-4.94;100.00;99689.38;5025318;28;20270;-71
2022/12/13 00:30:32;;;;;;;21.40;16.73;;;;;;;-4.94;100.00;99682.69;5046889;28;20318;-73
2022/12/13 00:32:58;;;;;;;20.30;16.23;;;;;;;-4.96;100.00;99678.34;5063138;28;20223;-72
2022/12/13 00:35:23;;;;;;;23.33;17.23;;;;;;;-4.94;100.00;99679.28;5035741;28;20193;-71
2022/12/13 00:37:48;;;;;;;20.73;16.23;;;;;;;-4.98;100.00;99677.41;5025482;28;20271;-72
2022/12/13 00:40:13;;;;;;;20.77;16.33;;;;;;;-4.98;100.00;99675.78;5030544;28;20180;-71
2022/12/13 00:42:39;;;;;;;23.90;17.53;;;;;;;-4.91;100.00;99667.66;5021973;28;20226;-71
2022/12/13 00:45:05;;;;;;;22.33;17.30;;;;;;;-4.95;100.00;99663.28;5043424;28;20603;-70
2022/12/13 00:47:30;;;;;;;22.83;17.10;;;;;;;-4.95;100.00;99659.88;5027975;28;20183;-70
2022/12/13 00:49:56;;;;;;;24.67;17.70;;;;;;;-4.96;100.00;99658.16;5025391;28;20206;-70
2022/12/13 00:52:21;;;;;;;21.03;16.63;;;;;;;-4.96;100.00;99650.59;5044032;28;20291;-71
2022/12/13 00:54:46;;;;;;;22.03;16.87;;;;;;;-5.00;100.00;99658.84;5024934;28;20579;-71
2022/12/13 00:57:12;;;;;;;22.67;16.90;;;;;;;-5.05;100.00;99656.09;5028696;28;20203;-71
2022/12/13 00:59:37;;;;;;;21.40;16.73;;;;;;;-5.11;100.00;99656.69;5029540;28;20188;-71
2022/12/13 01:02:02;;;;;;;20.60;17.03;;;;;;;-5.09;100.00;99657.63;5030273;28;20213;-72
2022/12/13 01:04:28;;;;;;;22.10;17.83;;;;;;;-5.09;100.00;99654.25;5026926;28;20211;-72
2022/12/13 01:06:54;;;;;;;22.77;18.57;;;;;;;-5.11;100.00;99648.28;5009525;28;20198;-71
2022/12/13 01:09:29;;;;;;;21.00;17.37;;;;;;;-5.15;100.00;99651.47;5027514;28;20176;-72
2022/12/13 01:11:57;;;;;;;20.27;17.53;;;;;;;-5.03;100.00;99644.41;5027232;28;20198;-71
2022/12/13 01:14:23;;;;;;;23.13;17.17;;;;;;;-5.07;100.00;99648.47;5024231;28;20210;-72
2022/12/13 01:16:48;;;;;;;21.40;17.50;;;;;;;-5.04;100.00;99645.22;5036458;28;20190;-73
2022/12/13 01:19:13;;;;;;;21.17;17.23;;;;;;;-5.03;100.00;99653.66;5015843;28;20552;-71
2022/12/13 01:21:39;;;;;;;18.80;15.67;;;;;;;-5.05;100.00;99651.06;5022010;28;20693;-71
2022/12/13 01:24:05;;;;;;;21.60;16.30;;;;;;;-5.08;100.00;99653.47;5048443;28;20203;-72
2022/12/13 01:26:31;;;;;;;21.10;16.23;;;;;;;-5.12;100.00;99649.91;5016563;28;20261;-72
2022/12/13 01:28:57;;;;;;;18.63;16.10;;;;;;;-5.18;100.00;99649.66;5022341;28;20668;-71
2022/12/13 01:31:22;;;;;;;20.63;16.27;;;;;;;-5.14;100.00;99640.56;5018397;28;20202;-72
2022/12/13 01:33:48;;;;;;;21.00;16.00;;;;;;;-5.13;100.00;99637.25;5019895;28;20715;-73
2022/12/13 01:36:17;;;;;;;20.37;16.57;;;;;;;-5.17;100.00;99635.38;5018179;28;20196;-72
2022/12/13 01:38:42;;;;;;;21.50;16.60;;;;;;;-5.21;100.00;99641.97;5006333;28;20199;-72
2022/12/13 01:41:12;;;;;;;20.03;16.07;;;;;;;-5.24;100.00;99646.88;5020189;28;20196;-72
2022/12/13 01:43:40;;;;;;;21.50;16.47;;;;;;;-5.21;100.00;99634.41;5021129;28;20216;-71
2022/12/13 01:46:06;;;;;;;20.97;17.10;;;;;;;-5.22;100.00;99635.19;5019961;28;20215;-72
2022/12/13 01:48:38;;;;;;;21.57;16.70;;;;;;;-5.24;100.00;99634.25;5020598;28;20809;-71
2022/12/13 01:51:06;;;;;;;20.60;16.97;;;;;;;-5.23;100.00;99639.38;5018161;28;22154;-73
2022/12/13 01:53:35;;;;;;;19.67;16.03;;;;;;;-5.24;100.00;99637.66;5016727;28;20954;-72
2022/12/13 01:56:05;;;;;;;21.50;16.93;;;;;;;-5.21;100.00;99630.19;5018994;28;20206;-71
2022/12/13 01:58:33;;;;;;;20.47;16.53;;;;;;;-5.20;100.00;99629.41;5025975;28;20202;-71
2022/12/13 02:00:59;;;;;;;22.27;17.50;;;;;;;-5.23;100.00;99623.38;5007442;28;20987;-73
2022/12/13 02:03:25;;;;;;;20.83;17.07;;;;;;;-5.25;100.00;99630.88;5023947;28;20203;-72
2022/12/13 02:06:25;;;;;;;18.97;15.97;;;;;;;-5.26;100.00;99630.78;5023566;28;20273;-72
2022/12/13 02:08:51;;;;;;;18.83;15.77;;;;;;;-5.29;100.00;99626.50;5025966;28;20560;-71
2022/12/13 02:11:16;;;;;;;22.47;17.67;;;;;;;-5.34;100.00;99619.53;5025656;28;20180;-71
2022/12/13 02:13:41;;;;;;;20.73;16.43;;;;;;;-5.39;100.00;99619.31;5037733;28;20219;-71
2022/12/13 02:16:40;;;;;;;19.07;15.67;;;;;;;-5.38;100.00;99626.09;5023965;28;20196;-72
2022/12/13 02:19:43;;;;;;;19.90;16.23;;;;;;;-5.43;100.00;99618.31;5037869;28;20187;-72
2022/12/13 02:22:53;;;;;;;19.73;15.90;;;;;;;-5.47;100.00;99610.53;5019774;28;20215;-72
2022/12/13 02:25:49;;;;;;;19.80;16.90;;;;;;;-5.46;100.00;99610.63;5009274;28;20182;-71
2022/12/13 02:28:53;;;;;;;19.83;15.37;;;;;;;-5.45;100.00;99608.94;5022983;28;20671;-71
2022/12/13 02:31:49;;;;;;;23.53;16.80;;;;;;;-5.46;100.00;99607.22;5017389;28;20207;-72
2022/12/13 02:34:25;;;;;;;20.10;15.67;;;;;;;-5.48;100.00;99604.66;5005197;28;20247;-72
2022/12/13 02:37:21;;;;;;;20.70;16.43;;;;;;;-5.46;100.00;99607.22;5019039;28;20207;-71
2022/12/13 02:39:55;;;;;;;24.50;17.87;;;;;;;-5.49;100.00;99613.00;5020645;28;20196;-72
2022/12/13 02:42:23;;;;;;;20.33;16.13;;;;;;;-5.51;100.00;99599.47;5002473;28;20231;-71
2022/12/13 02:44:55;;;;;;;19.07;15.67;;;;;;;-5.54;100.00;99606.88;5008140;28;20301;-72
2022/12/13 02:47:23;;;;;;;22.93;16.37;;;;;;;-5.53;100.00;99596.00;5018953;28;20190;-72
2022/12/13 02:49:56;;;;;;;19.93;16.60;;;;;;;-5.53;100.00;99606.09;5043117;28;20212;-73
2022/12/13 02:52:27;;;;;;;21.73;17.67;;;;;;;-5.51;100.00;99592.75;5050427;28;20196;-71
2022/12/13 02:54:54;;;;;;;22.60;17.67;;;;;;;-5.48;100.00;99597.09;5023219;28;20179;-71
2022/12/13 02:57:29;;;;;;;21.63;17.17;;;;;;;-5.43;100.00;99593.09;5020672;28;20694;-71
2022/12/13 02:59:55;;;;;;;19.10;16.47;;;;;;;-5.38;100.00;99594.16;5018286;28;20191;-72
2022/12/13 03:02:31;;;;;;;21.80;17.43;;;;;;;-5.37;100.00;99584.94;5016914;28;20701;-72
2022/12/13 03:08:00;;;;;;;21.73;18.27;;;;;;;-5.42;100.00;99578.84;5021311;28;20197;-72
2022/12/13 03:10:36;;;;;;;22.97;18.67;;;;;;;-5.49;100.00;99584.38;5019275;28;20179;-72
2022/12/13 03:13:35;;;;;;;21.63;18.27;;;;;;;-5.58;100.00;99575.63;5018876;28;20284;-72
2022/12/13 03:16:35;;;;;;;22.43;18.47;;;;;;;-5.54;100.00;99574.97;5015584;28;20230;-72
2022/12/13 03:19:06;;;;;;;23.60;18.83;;;;;;;-5.46;100.00;99582.00;5021500;28;20184;-71
2022/12/13 03:21:46;;;;;;;24.20;18.93;;;;;;;-5.44;100.00;99575.38;5020043;28;20235;-71
2022/12/13 03:24:12;;;;;;;25.67;18.50;;;;;;;-5.39;100.00;99572.25;5011795;28;20198;-71
2022/12/13 03:26:39;;;;;;;21.23;17.63;;;;;;;-5.39;100.00;99574.78;5018702;28;20582;-72
2022/12/13 03:29:05;;;;;;;21.97;18.17;;;;;;;-5.41;100.00;99567.94;4998548;28;20761;-72
2022/12/13 03:31:30;;;;;;;20.87;17.17;;;;;;;-5.48;100.00;99561.78;5002979;28;20180;-71
2022/12/13 03:33:55;;;;;;;19.70;17.17;;;;;;;-5.51;100.00;99556.59;5022792;28;20210;-72
2022/12/13 03:36:21;;;;;;;19.13;16.57;;;;;;;-5.53;100.00;99554.03;5025478;28;20187;-71
2022/12/13 03:38:49;;;;;;;21.77;17.13;;;;;;;-5.55;100.00;99565.69;5019441;28;20282;-72
2022/12/13 03:41:17;;;;;;;22.50;18.17;;;;;;;-5.52;100.00;99564.94;5017859;28;20249;-72
2022/12/13 03:43:43;;;;;;;21.30;17.43;;;;;;;-5.52;100.00;99567.47;5022713;28;20322;-72
2022/12/13 03:46:09;;;;;;;21.90;18.13;;;;;;;-5.54;100.00;99564.03;5023535;28;20190;-72
2022/12/13 03:48:34;;;;;;;21.50;18.33;;;;;;;-5.48;100.00;99556.75;5025929;28;20191;-71
2022/12/13 03:51:00;;;;;;;25.23;19.20;;;;;;;-5.46;100.00;99564.34;5016922;28;20794;-72
2022/12/13 03:53:26;;;;;;;20.50;17.57;;;;;;;-5.45;100.00;99561.03;5025061;28;20603;-71
2022/12/13 03:55:51;;;;;;;23.37;18.27;;;;;;;-5.47;100.00;99563.50;5037474;28;20195;-72
2022/12/13 03:58:17;;;;;;;21.90;17.77;;;;;;;-5.54;100.00;99572.47;5027273;28;20199;-70
2022/12/13 04:00:43;;;;;;;21.90;18.03;;;;;;;-5.57;100.00;99564.75;5029981;28;20294;-71
2022/12/13 04:03:08;;;;;;;21.73;17.93;;;;;;;-5.53;100.00;99568.28;5020786;28;20217;-73
2022/12/13 04:05:33;;;;;;;23.33;19.00;;;;;;;-5.53;100.00;99575.84;5023650;28;20283;-72
2022/12/13 04:07:58;;;;;;;24.40;18.13;;;;;;;-5.51;100.00;99574.25;5026733;28;20286;-71
2022/12/13 04:10:24;;;;;;;22.20;18.33;;;;;;;-5.56;100.00;99575.69;5024319;28;20214;-72
2022/12/13 04:15:33;;;;;;;22.40;18.73;;;;;;;-5.53;100.00;99576.72;5024688;28;20654;-72
2022/12/13 04:17:59;;;;;;;22.33;18.37;;;;;;;-5.58;100.00;99573.13;5028264;28;20184;-72
2022/12/13 04:20:24;;;;;;;26.50;20.67;;;;;;;-5.55;100.00;99567.34;5025988;28;20711;-71
2022/12/13 04:22:49;;;;;;;22.40;19.47;;;;;;;-5.56;100.00;99578.22;5026801;28;20262;-71
2022/12/13 04:25:15;;;;;;;24.40;19.53;;;;;;;-5.56;100.00;99569.00;5027501;28;20683;-71
2022/12/13 04:27:40;;;;;;;25.87;19.87;;;;;;;-5.55;100.00;99560.66;5027200;28;20245;-72
2022/12/13 04:30:07;;;;;;;24.83;19.97;;;;;;;-5.54;100.00;99572.47;5018789;28;20719;-71
2022/12/13 04:32:32;;;;;;;23.43;19.30;;;;;;;-5.57;100.00;99563.88;5021936;28;20910;-71
2022/12/13 04:34:57;;;;;;;23.67;20.17;;;;;;;-5.60;100.00;99567.13;5018321;28;20286;-72
2022/12/13 04:37:23;;;;;;;23.43;19.70;;;;;;;-5.63;100.00;99571.19;5024178;28;20329;-73
2022/12/13 04:39:48;;;;;;;24.60;20.30;;;;;;;-5.61;100.00;99567.94;5023422;28;20656;-72
2022/12/13 04:42:14;;;;;;;24.93;19.67;;;;;;;-5.62;100.00;99578.81;5022734;28;20225;-71
2022/12/13 04:44:39;;;;;;;24.80;19.50;;;;;;;-5.61;100.00;99570.44;5039690;28;20675;-72
2022/12/13 04:47:04;;;;;;;25.27;20.63;;;;;;;-5.62;100.00;99576.28;5020473;28;20192;-73
2022/12/13 04:49:30;;;;;;;27.83;21.43;;;;;;;-5.60;100.00;99568.81;5029868;28;20190;-71
2022/12/13 04:51:56;;;;;;;26.03;20.50;;;;;;;-5.60;100.00;99574.69;5026776;28;20306;-71
2022/12/13 04:54:21;;;;;;;24.67;20.43;;;;;;;-5.56;100.00;99580.72;5023067;28;20341;-72
2022/12/13 04:56:47;;;;;;;26.43;20.57;;;;;;;-5.57;100.00;99567.28;5033026;28;20275;-72
2022/12/13 04:59:12;;;;;;;25.63;20.20;;;;;;;-5.56;100.00;99560.56;5027103;28;20333;-71
2022/12/13 05:01:37;;;;;;;26.13;21.20;;;;;;;-5.53;100.00;99569.16;5032669;28;20210;-72
2022/12/13 05:04:04;;;;;;;26.87;22.03;;;;;;;-5.53;100.00;99570.78;5027258;28;20693;-72
2022/12/13 05:06:29;;;;;;;27.37;20.87;;;;;;;-5.55;100.00;99565.69;5051004;28;20200;-73
2022/12/13 05:08:55;;;;;;;26.57;20.77;;;;;;;-5.54;100.00;99564.91;5055313;28;20206;-73
2022/12/13 05:11:20;;;;;;;23.33;19.90;;;;;;;-5.57;100.00;99559.72;5033865;28;20551;-72
2022/12/13 05:13:46;;;;;;;25.10;20.27;;;;;;;-5.57;100.00;99553.78;5020574;28;21053;-71
2022/12/13 05:16:11;;;;;;;26.13;21.03;;;;;;;-5.57;100.00;99559.72;5031348;28;20191;-71
2022/12/13 05:18:37;;;;;;;25.07;19.93;;;;;;;-5.59;100.00;99558.78;5015795;28;20587;-72
2022/12/13 05:21:05;;;;;;;30.13;21.00;;;;;;;-5.60;100.00;99554.53;5027318;28;20201;-72
2022/12/13 05:23:31;;;;;;;24.60;21.20;;;;;;;-5.67;100.00;99558.44;5022902;28;20234;-71
2022/12/13 05:25:56;;;;;;;30.17;22.63;;;;;;;-5.67;100.00;99555.03;5031999;28;20370;-69
2022/12/13 05:28:24;;;;;;;28.87;21.13;;;;;;;-5.68;100.00;99551.69;5040941;28;20665;-71
2022/12/13 05:30:50;;;;;;;29.17;21.87;;;;;;;-5.70;100.00;99554.94;5029182;28;20195;-72
2022/12/13 05:33:15;;;;;;;27.73;21.83;;;;;;;-5.68;100.00;99563.44;5020388;28;20703;-72
2022/12/13 05:35:40;;;;;;;28.23;21.70;;;;;;;-5.62;100.00;99555.28;5025393;28;21025;-72
2022/12/13 05:38:06;;;;;;;25.97;21.30;;;;;;;-5.67;100.00;99563.47;5024992;28;20321;-71
2022/12/13 05:40:31;;;;;;;27.50;21.67;;;;;;;-5.67;100.00;99547.47;5041260;28;20195;-71
2022/12/13 05:42:57;;;;;;;26.80;21.53;;;;;;;-5.64;100.00;99554.34;5022308;28;20717;-71
2022/12/13 05:45:22;;;;;;;26.83;20.87;;;;;;;-5.66;100.00;99539.13;5027499;28;20186;-72
2022/12/13 05:47:48;;;;;;;28.03;21.67;;;;;;;-5.67;100.00;99550.88;5006893;28;20196;-72
2022/12/13 05:50:14;;;;;;;27.73;21.83;;;;;;;-5.66;100.00;99552.59;5011578;28;20763;-71
2022/12/13 05:52:41;;;;;;;27.53;21.77;;;;;;;-5.68;100.00;99550.81;5020107;28;20350;-71
2022/12/13 05:55:08;;;;;;;26.63;21.20;;;;;;;-5.68;100.00;99551.69;5028401;28;20286;-71
2022/12/13 05:57:33;;;;;;;31.77;21.27;;;;;;;-5.71;100.00;99551.53;5022046;28;20219;-72
2022/12/13 05:59:58;;;;;;;26.00;20.30;;;;;;;-5.71;100.00;99558.25;5027480;28;20567;-71
2022/12/13 06:02:24;;;;;;;26.90;21.97;;;;;;;-5.74;100.00;99548.00;5019843;28;22458;-71
2022/12/13 06:04:49;;;;;;;25.80;20.90;;;;;;;-5.70;100.00;99554.94;5001814;28;20196;-71
2022/12/13 06:07:14;;;;;;;26.47;21.10;;;;;;;-5.74;100.00;99558.94;5003368;28;20297;-73
2022/12/13 06:09:40;;;;;;;29.70;20.73;;;;;;;-5.76;100.00;99553.00;5025629;28;20278;-73
2022/12/13 06:12:06;;;;;;;30.27;21.27;;;;;;;-5.73;100.00;99544.72;5019377;28;21098;-74
2022/12/13 06:14:32;;;;;;;32.13;21.20;;;;;;;-5.78;100.00;99552.06;5021275;28;20752;-73
2022/12/13 06:16:57;;;;;;;27.10;21.20;;;;;;;-5.75;100.00;99556.38;5025591;28;20195;-73
2022/12/13 06:19:23;;;;;;;29.20;21.47;;;;;;;-5.78;100.00;99549.56;5029729;28;20246;-73
2022/12/13 06:21:49;;;;;;;26.33;20.93;;;;;;;-5.77;100.00;99542.84;5030370;28;21914;-73
2022/12/13 06:24:16;;;;;;;27.50;21.53;;;;;;;-5.78;100.00;99539.47;5024065;28;20297;-74
2022/12/13 06:26:42;;;;;;;28.73;20.87;;;;;;;-5.81;100.00;99540.16;5010048;28;20270;-73
2022/12/13 06:29:07;;;;;;;26.70;20.50;;;;;;;-5.84;100.00;99549.25;5041400;28;20274;-74
2022/12/13 06:31:32;;;;;;;27.00;20.77;;;;;;;-5.83;100.00;99544.31;5036654;28;20597;-74
2022/12/13 06:34:02;;;;;;;26.37;20.53;;;;;;;-5.83;100.00;99553.50;5028837;28;20298;-74
2022/12/13 06:36:27;;;;;;;24.60;19.63;;;;;;;-5.84;100.00;99551.78;5032623;28;20483;-74
2022/12/13 06:38:53;;;;;;;32.33;20.93;;;;;;;-5.83;100.00;99551.88;5021180;28;20196;-74
2022/12/13 06:41:18;;;;;;;29.17;20.33;;;;;;;-5.80;100.00;99551.13;5027760;28;20568;-74
2022/12/13 06:43:45;;;;;;;25.33;20.20;;;;;;;-5.86;100.00;99550.84;5028568;28;20352;-74
2022/12/13 06:46:11;;;;;;;25.77;19.60;;;;;;;-5.83;100.00;99561.94;5037830;28;20184;-74
2022/12/13 06:48:36;;;;;;;24.47;19.67;;;;;;;-5.82;100.00;99565.31;5033851;28;20922;-75
2022/12/13 06:51:03;;;;;;;25.60;20.60;;;;;;;-5.83;100.00;99563.59;5026100;28;20310;-73
2022/12/13 06:53:29;;;;;;;26.33;20.90;;;;;;;-5.82;100.00;99562.78;5028926;28;20301;-74
2022/12/13 06:55:55;;;;;;;25.43;21.67;;;;;;;-5.82;100.00;99567.84;5009861;28;22230;-75
2022/12/13 06:58:20;;;;;;;26.37;20.17;;;;;;;-5.79;100.00;99573.03;5027540;28;20186;-73
2022/12/13 07:00:45;;;;;;;28.93;23.37;;;;;;;-5.87;100.00;99570.16;5027391;28;21066;-74
2022/12/13 07:03:11;;;;;;;30.90;24.50;;;;;;;-5.90;100.00;99571.69;5016203;28;20585;-74
2022/12/13 07:05:38;;;;;;;31.03;24.73;;;;;;;-5.95;100.00;99575.63;5017256;28;20187;-73
2022/12/13 07:08:03;;;;;;;32.93;24.97;;;;;;;-6.06;100.00;99572.66;5017326;28;20202;-74
2022/12/13 07:10:29;;;;;;;24.80;19.23;;;;;;;-6.16;100.00;99571.34;5020963;28;20585;-74
2022/12/13 07:12:55;;;;;;;32.40;25.53;;;;;;;-6.24;100.00;99571.00;5017050;28;20265;-74
2022/12/13 07:15:20;;;;;;;35.17;25.70;;;;;;;-6.29;100.00;99565.75;5013592;28;20199;-75
2022/12/13 07:17:50;;;;;;;35.23;26.70;;;;;;;-6.34;100.00;99579.78;5013440;28;20191;-74
2022/12/13 07:20:18;;;;;;;33.93;25.23;;;;;;;-6.37;100.00;99574.63;5027465;28;20199;-74
2022/12/13 07:22:43;;;;;;;37.27;26.40;;;;;;;-6.39;100.00;99570.28;5020891;28;20207;-73
2022/12/13 07:25:09;;;;;;;37.10;26.30;;;;;;;-6.30;100.00;99583.31;5041512;28;20210;-74
2022/12/13 07:27:35;;;;;;;35.87;26.00;;;;;;;-6.32;100.00;99580.72;5046549;28;20188;-74
2022/12/13 07:30:00;;;;;;;36.43;26.20;;;;;;;-6.35;100.00;99592.31;5027175;28;20666;-73
2022/12/13 07:32:26;;;;;;;36.60;26.37;;;;;;;-6.31;100.00;99594.19;5021595;28;20326;-74
2022/12/13 07:34:51;;;;;;;34.63;27.07;;;;;;;-6.36;100.00;99593.97;5022691;28;20218;-74
2022/12/13 07:37:17;;;;;;;38.77;27.37;;;;;;;-6.36;100.00;99595.59;5027018;28;20253;-74
2022/12/13 07:39:42;;;;;;;39.60;27.27;;;;;;;-6.39;100.00;99590.41;5027514;28;20573;-74
2022/12/13 07:42:07;;;;;;;35.33;26.03;;;;;;;-6.44;100.00;99596.13;5017909;28;20195;-74
2022/12/13 07:44:32;;;;;;;38.80;27.83;;;;;;;-6.40;100.00;99592.09;5010202;28;20218;-74
2022/12/13 07:46:58;;;;;;;34.63;26.30;;;;;;;-6.40;100.00;99597.13;5019290;28;20664;-74
2022/12/13 07:49:23;;;;;;;38.63;28.03;;;;;;;-6.36;100.00;99601.53;5026168;28;20993;-74
2022/12/13 07:51:49;;;;;;;35.30;26.93;;;;;;;-6.31;100.00;99606.78;5014889;28;20215;-74
2022/12/13 07:54:14;;;;;;;35.00;26.57;;;;;;;-6.26;100.00;99604.47;5023047;28;20303;-74
2022/12/13 07:56:39;;;;;;;39.00;27.03;;;;;;;-6.25;100.00;99609.56;5013589;28;20199;-74
2022/12/13 07:59:05;;;;;;;39.17;27.37;;;;;;;-6.20;100.00;99607.28;5029001;28;20183;-73
2022/12/13 08:01:33;;;;;;;37.83;27.27;;;;;;;-6.19;100.00;99612.38;5004979;28;20194;-74
2022/12/13 08:04:00;;;;;;;35.83;27.10;;;;;;;-6.18;100.00;99615.75;5030852;28;20586;-73
2022/12/13 08:06:25;;;;;;;37.10;26.43;;;;;;;-6.17;100.00;99609.94;5042670;28;20294;-74
2022/12/13 08:08:57;;;;;;;41.83;28.70;;;;;;;-6.14;100.00;99608.44;5032091;28;20281;-75
2022/12/13 08:11:23;;;;;;;35.17;25.60;;;;;;;-6.09;100.00;99605.25;5029443;28;20230;-74
2022/12/13 08:13:48;;;;;;;37.37;27.13;;;;;;;-6.08;100.00;99609.50;5023309;28;20596;-74
2022/12/13 08:16:16;;;;;;;34.93;27.43;;;;;;;-6.07;100.00;99606.19;5027278;28;20245;-73
2022/12/13 08:18:43;;;;;;;37.07;27.30;;;;;;;-6.01;100.00;99609.84;5029433;28;21101;-75
2022/12/13 08:21:09;;;;;;;35.83;27.07;;;;;;;-6.01;100.00;99609.84;5028382;28;20282;-75
2022/12/13 08:23:34;;;;;;;36.57;26.50;;;;;;;-5.99;100.00;99612.44;5030944;28;20213;-73
2022/12/13 08:26:01;;;;;;;38.87;28.93;;;;;;;-5.91;100.00;99605.22;5026579;28;20186;-73
2022/12/13 08:28:27;;;;;;;34.57;26.33;;;;;;;-5.91;100.00;99613.63;5028400;28;20184;-74
2022/12/13 08:30:53;;;;;;;37.37;27.40;;;;;;;-5.84;100.00;99600.53;5025154;28;21284;-75
2022/12/13 08:33:19;;;;;;;39.40;28.63;;;;;;;-5.76;100.00;99605.94;5028544;28;20214;-74
2022/12/13 08:35:45;;;;;;;35.40;27.87;;;;;;;-5.72;100.00;99602.72;5022763;28;20195;-75
2022/12/13 08:38:11;;;;;;;37.57;29.03;;;;;;;-5.71;100.00;99591.84;5030487;28;20289;-73
2022/12/13 08:40:37;;;;;;;37.73;28.97;;;;;;;-5.67;100.00;99595.38;5029034;28;20690;-74
2022/12/13 08:43:02;;;;;;;35.30;27.67;;;;;;;-5.64;100.00;99593.00;5031532;28;20203;-74
2022/12/13 08:45:28;;;;;;;36.17;27.57;;;;;;;-5.61;100.00;99588.09;5034953;28;20194;-74
2022/12/13 08:47:56;;;;;;;36.60;27.20;;;;;;;-5.55;100.00;99592.53;5009308;28;20203;-74
2022/12/13 08:50:21;;;;;;;38.03;27.37;;;;;;;-5.46;100.00;99587.06;5026953;28;20234;-74
2022/12/13 08:52:47;;;;;;;32.47;25.30;;;;;;;-5.38;100.00;99591.63;5021914;28;20314;-74
2022/12/13 08:55:14;;;;;;;34.80;25.67;;;;;;;-5.23;100.00;99590.56;5029443;28;20187;-75
2022/12/13 08:57:40;;;;;;;28.10;21.57;;;;;;;-5.10;100.00;99597.03;5044659;28;20198;-74
2022/12/13 09:00:08;;;;;;;26.80;21.27;;;;;;;-4.93;100.00;99590.16;5020606;28;20182;-74
2022/12/13 09:02:33;;;;;;;26.40;20.70;;;;;;;-4.82;100.00;99583.03;5017916;28;20188;-76
2022/12/13 09:04:59;;;;;;;28.40;20.83;;;;;;;-4.73;100.00;99583.41;5018531;28;20180;-74
2022/12/13 09:07:24;;;;;;;25.47;20.43;;;;;;;-4.68;100.00;99591.16;5017094;28;20664;-74
2022/12/13 09:09:49;;;;;;;24.50;20.07;;;;;;;-4.57;100.00;99584.03;5034689;28;20210;-73
2022/12/13 09:12:15;;;;;;;27.40;20.87;;;;;;;-4.50;100.00;99584.34;5026331;28;20223;-75
2022/12/13 09:14:40;;;;;;;25.13;19.53;;;;;;;-4.39;100.00;99604.13;5024979;28;20211;-75
2022/12/13 09:17:05;;;;;;;25.37;20.57;;;;;;;-4.30;100.00;99615.44;5025762;28;20400;-74
2022/12/13 09:19:31;;;;;;;24.97;19.80;;;;;;;-4.25;99.78;99582.81;5054949;28;20281;-74
2022/12/13 09:21:56;;;;;;;26.63;21.53;;;;;;;-4.18;99.82;99582.22;5043957;28;20255;-74
2022/12/13 09:24:22;;;;;;;25.63;19.87;;;;;;;-4.13;98.39;99587.47;5049820;28;20203;-74
2022/12/13 09:26:47;;;;;;;22.00;18.53;;;;;;;-4.13;96.59;99582.41;5025218;28;21020;-74
2022/12/13 09:29:15;;;;;;;20.57;18.13;;;;;;;-4.05;97.35;99590.28;5005967;28;20597;-74
2022/12/13 09:31:41;;;;;;;26.47;19.60;;;;;;;-3.99;96.44;99595.59;5030170;28;20193;-75
2022/12/13 09:34:07;;;;;;;23.70;18.77;;;;;;;-3.98;96.35;99585.53;5017314;28;20222;-74
2022/12/13 09:36:32;;;;;;;24.63;18.80;;;;;;;-3.91;96.28;99584.09;5020217;28;20201;-74
2022/12/13 09:38:58;;;;;;;22.77;18.60;;;;;;;-3.93;95.71;99587.38;5017650;28;20195;-74
2022/12/13 09:41:38;;;;;;;25.57;19.20;;;;;;;-3.88;95.48;99588.41;5017352;28;20187;-75
2022/12/13 09:44:10;;;;;;;22.70;18.13;;;;;;;-3.87;95.01;99582.56;5018346;28;20332;-75
2022/12/13 09:46:43;;;;;;;21.70;17.57;;;;;;;-3.83;95.21;99585.25;5041293;28;20286;-75
2022/12/13 09:49:17;;;;;;;23.87;18.40;;;;;;;-3.77;94.92;99582.09;5048301;28;20177;-74
2022/12/13 09:51:47;;;;;;;24.97;18.53;;;;;;;-3.70;95.05;99594.16;5025448;28;20191;-74
2022/12/13 09:54:17;;;;;;;21.47;18.00;;;;;;;-3.65;95.03;99599.41;5023208;28;20268;-74
2022/12/13 09:56:43;;;;;;;21.90;18.23;;;;;;;-3.67;94.69;99585.84;5023923;28;20203;-75
2022/12/13 09:59:13;;;;;;;23.87;18.20;;;;;;;-3.67;94.03;99584.16;5020829;28;20193;-75
2022/12/13 10:01:38;;;;;;;20.90;16.83;;;;;;;-3.63;94.00;99580.06;5021123;28;20197;-75
2022/12/13 10:04:11;;;;;;;25.20;19.13;;;;;;;-3.57;93.89;99585.34;5017025;28;20214;-74
2022/12/13 10:06:37;;;;;;;23.27;18.53;;;;;;;-3.58;93.38;99586.16;5021503;28;20246;-75
2022/12/13 10:09:08;;;;;;;22.70;19.03;;;;;;;-3.56;93.93;99568.53;5019780;28;20206;-75
2022/12/13 10:11:34;;;;;;;20.87;17.90;;;;;;;-3.53;93.44;99563.56;5042764;28;20194;-74
2022/12/13 10:14:05;;;;;;;23.50;18.83;;;;;;;-3.46;94.14;99567.16;5021394;28;20809;-74
2022/12/13 10:16:33;;;;;;;20.80;17.10;;;;;;;-3.41;93.12;99579.19;5022626;28;20192;-75
2022/12/13 10:19:00;;;;;;;21.27;18.30;;;;;;;-3.35;93.20;99560.84;5014283;28;20192;-74
2022/12/13 10:21:37;;;;;;;24.83;19.47;;;;;;;-3.29;92.82;99557.66;5025193;28;20186;-75
2022/12/13 10:24:26;;;;;;;22.47;17.67;;;;;;;-3.24;92.64;99559.53;5022536;28;20669;-74
2022/12/13 10:26:52;;;;;;;21.80;17.73;;;;;;;-3.22;92.73;99545.28;5021519;28;20218;-75
2022/12/13 10:29:18;;;;;;;23.77;18.83;;;;;;;-3.15;93.13;99553.94;5022167;28;20251;-75
2022/12/13 10:31:46;;;;;;;24.87;17.23;;;;;;;-3.09;93.19;99545.69;5023570;28;20195;-74
2022/12/13 10:34:28;;;;;;;24.93;17.37;;;;;;;-3.09;92.83;99535.56;5020516;28;20781;-74
2022/12/13 10:36:54;;;;;;;20.17;16.70;;;;;;;-3.00;92.38;99537.56;5023330;28;20191;-76
2022/12/13 10:39:41;;;;;;;20.77;17.43;;;;;;;-3.01;91.82;99539.19;5023352;28;20202;-74
2022/12/13 10:42:15;;;;;;;20.37;16.93;;;;;;;-2.98;91.36;99536.78;5040959;28;20990;-75
2022/12/13 10:44:41;;;;;;;21.93;16.37;;;;;;;-2.92;91.30;99529.41;5017818;28;20293;-74
2022/12/13 10:47:09;;;;;;;19.90;17.30;;;;;;;-2.84;91.02;99529.66;5019822;28;20187;-76
2022/12/13 10:49:47;;;;;;;21.47;17.93;;;;;;;-2.73;90.98;99536.72;5005267;28;20192;-74
2022/12/13 10:52:33;;;;;;;20.77;16.50;;;;;;;-2.66;90.87;99531.06;5017921;28;20747;-75
2022/12/13 10:55:05;;;;;;;21.23;17.07;;;;;;;-2.58;90.74;99532.16;5007066;28;22029;-75
2022/12/13 10:57:32;;;;;;;21.47;16.17;;;;;;;-2.59;89.86;99532.13;5020354;28;20202;-75
2022/12/13 10:59:57;;;;;;;20.80;16.33;;;;;;;-2.59;89.25;99530.44;5018838;28;20659;-75
2022/12/13 11:02:35;;;;;;;21.87;15.90;;;;;;;-2.53;89.32;99527.22;4993961;28;20187;-76
2022/12/13 11:05:23;;;;;;;19.73;16.40;;;;;;;-2.48;89.51;99528.25;5021551;28;20211;-75
2022/12/13 11:07:49;;;;;;;19.57;16.40;;;;;;;-2.40;89.40;99519.19;5023033;28;20233;-75
2022/12/13 11:10:21;;;;;;;19.33;16.07;;;;;;;-2.35;89.28;99511.75;5024481;28;20188;-74
2022/12/13 11:12:48;;;;;;;19.13;15.80;;;;;;;-2.34;89.19;99510.91;5016731;28;20262;-75
2022/12/13 11:15:18;;;;;;;20.10;16.70;;;;;;;-2.33;89.33;99515.19;5019938;28;20192;-75
2022/12/13 11:17:50;;;;;;;19.63;16.43;;;;;;;-2.36;89.00;99510.88;5038159;28;20188;-75
2022/12/13 11:20:23;;;;;;;19.27;17.17;;;;;;;-2.30;89.27;99518.69;5023429;28;20275;-75
2022/12/13 11:22:57;;;;;;;19.30;16.23;;;;;;;-2.37;88.81;99514.22;5019359;28;20224;-76